sensor_id;sensor_type;location;lat;lon;timestamp;P1;durP1;ratioP1;P2;durP2;ratioP2
18818;SDS011;9537;45.594;9.294;2023-06-22T00:00:34;10.48;;;7.63;;
18818;SDS011;9537;45.594;9.294;2023-06-22T00:01:35;12.77;;;8.20;;
18818;SDS011;9537;45.594;9.294;2023-06-22T00:02:37;10.20;;;7.70;;
18818;SDS011;9537;45.594;9.294;2023-06-22T00:03:37;11.63;;;7.93;;
18818;SDS011;9537;45.594;9.294;2023-06-22T00:04:39;11.07;;;7.97;;
18818;SDS011;9537;45.594;9.294;2023-06-22T00:05:40;11.80;;;7.93;;
18818;SDS011;9537;45.594;9.294;2023-06-22T00:06:41;10.43;;;7.55;;
18818;SDS011;9537;45.594;9.294;2023-06-22T00:07:42;8.60;;;6.90;;
18818;SDS011;9537;45.594;9.294;2023-06-22T00:08:44;7.75;;;6.72;;
18818;SDS011;9537;45.594;9.294;2023-06-22T00:09:46;8.88;;;6.72;;
18818;SDS011;9537;45.594;9.294;2023-06-22T00:10:48;10.00;;;7.88;;
18818;SDS011;9537;45.594;9.294;2023-06-22T00:11:48;11.55;;;7.65;;
18818;SDS011;9537;45.594;9.294;2023-06-22T00:12:50;8.52;;;6.60;;
18818;SDS011;9537;45.594;9.294;2023-06-22T00:13:51;10.10;;;7.25;;
18818;SDS011;9537;45.594;9.294;2023-06-22T00:14:52;11.05;;;7.35;;
18818;SDS011;9537;45.594;9.294;2023-06-22T00:15:53;9.15;;;6.63;;
18818;SDS011;9537;45.594;9.294;2023-06-22T00:16:55;8.73;;;7.30;;
18818;SDS011;9537;45.594;9.294;2023-06-22T00:17:57;11.23;;;7.95;;
18818;SDS011;9537;45.594;9.294;2023-06-22T00:18:59;8.25;;;7.05;;
18818;SDS011;9537;45.594;9.294;2023-06-22T00:20:00;12.43;;;8.00;;
18818;SDS011;9537;45.594;9.294;2023-06-22T00:21:07;10.60;;;7.80;;
18818;SDS011;9537;45.594;9.294;2023-06-22T00:22:08;9.63;;;6.88;;
18818;SDS011;9537;45.594;9.294;2023-06-22T00:23:09;10.95;;;7.68;;
18818;SDS011;9537;45.594;9.294;2023-06-22T00:24:11;11.88;;;7.60;;
18818;SDS011;9537;45.594;9.294;2023-06-22T00:25:13;9.25;;;7.68;;
18818;SDS011;9537;45.594;9.294;2023-06-22T00:26:15;8.63;;;7.72;;
18818;SDS011;9537;45.594;9.294;2023-06-22T00:27:17;12.07;;;7.85;;
18818;SDS011;9537;45.594;9.294;2023-06-22T00:28:19;11.25;;;8.55;;
18818;SDS011;9537;45.594;9.294;2023-06-22T00:29:20;10.48;;;7.70;;
18818;SDS011;9537;45.594;9.294;2023-06-22T00:30:21;11.85;;;8.05;;
18818;SDS011;9537;45.594;9.294;2023-06-22T00:31:22;9.95;;;7.80;;
18818;SDS011;9537;45.594;9.294;2023-06-22T00:32:24;11.63;;;7.78;;
18818;SDS011;9537;45.594;9.294;2023-06-22T00:33:25;11.05;;;7.70;;
18818;SDS011;9537;45.594;9.294;2023-06-22T00:34:28;10.40;;;7.57;;
18818;SDS011;9537;45.594;9.294;2023-06-22T00:35:29;9.88;;;8.30;;
18818;SDS011;9537;45.594;9.294;2023-06-22T00:36:30;10.63;;;7.25;;
18818;SDS011;9537;45.594;9.294;2023-06-22T00:37:31;12.02;;;8.00;;
18818;SDS011;9537;45.594;9.294;2023-06-22T00:38:33;11.60;;;7.75;;
18818;SDS011;9537;45.594;9.294;2023-06-22T00:39:33;8.82;;;7.50;;
18818;SDS011;9537;45.594;9.294;2023-06-22T00:40:36;10.68;;;8.10;;
18818;SDS011;9537;45.594;9.294;2023-06-22T00:41:37;10.25;;;7.70;;
18818;SDS011;9537;45.594;9.294;2023-06-22T00:42:39;11.20;;;7.53;;
18818;SDS011;9537;45.594;9.294;2023-06-22T00:43:39;11.13;;;7.85;;
18818;SDS011;9537;45.594;9.294;2023-06-22T00:44:42;11.07;;;7.95;;
18818;SDS011;9537;45.594;9.294;2023-06-22T00:45:42;10.77;;;7.82;;
18818;SDS011;9537;45.594;9.294;2023-06-22T00:46:44;12.02;;;8.10;;
18818;SDS011;9537;45.594;9.294;2023-06-22T00:47:45;11.05;;;7.70;;
18818;SDS011;9537;45.594;9.294;2023-06-22T00:48:47;8.52;;;7.47;;
18818;SDS011;9537;45.594;9.294;2023-06-22T00:49:48;9.52;;;7.32;;
18818;SDS011;9537;45.594;9.294;2023-06-22T00:50:52;9.23;;;7.53;;
18818;SDS011;9537;45.594;9.294;2023-06-22T00:51:56;11.38;;;8.00;;
18818;SDS011;9537;45.594;9.294;2023-06-22T00:52:58;11.63;;;7.60;;
18818;SDS011;9537;45.594;9.294;2023-06-22T00:54:01;11.23;;;7.95;;
18818;SDS011;9537;45.594;9.294;2023-06-22T00:55:02;10.65;;;7.57;;
18818;SDS011;9537;45.594;9.294;2023-06-22T00:56:06;9.43;;;7.03;;
18818;SDS011;9537;45.594;9.294;2023-06-22T00:57:09;10.30;;;7.28;;
18818;SDS011;9537;45.594;9.294;2023-06-22T00:58:11;8.77;;;6.88;;
18818;SDS011;9537;45.594;9.294;2023-06-22T00:59:13;9.85;;;7.45;;
18818;SDS011;9537;45.594;9.294;2023-06-22T01:00:17;12.32;;;8.35;;
18818;SDS011;9537;45.594;9.294;2023-06-22T01:01:20;9.23;;;6.88;;
18818;SDS011;9537;45.594;9.294;2023-06-22T01:02:23;9.38;;;6.82;;
18818;SDS011;9537;45.594;9.294;2023-06-22T01:03:24;11.75;;;7.85;;
18818;SDS011;9537;45.594;9.294;2023-06-22T01:04:34;9.90;;;7.22;;
18818;SDS011;9537;45.594;9.294;2023-06-22T01:05:36;12.20;;;7.75;;
18818;SDS011;9537;45.594;9.294;2023-06-22T01:06:40;9.40;;;7.90;;
18818;SDS011;9537;45.594;9.294;2023-06-22T01:07:51;9.18;;;7.70;;
18818;SDS011;9537;45.594;9.294;2023-06-22T01:09:06;9.32;;;7.35;;
18818;SDS011;9537;45.594;9.294;2023-06-22T01:10:16;9.68;;;7.60;;
18818;SDS011;9537;45.594;9.294;2023-06-22T01:11:28;10.90;;;7.93;;
18818;SDS011;9537;45.594;9.294;2023-06-22T01:12:38;12.48;;;7.65;;
18818;SDS011;9537;45.594;9.294;2023-06-22T01:13:45;10.50;;;7.43;;
18818;SDS011;9537;45.594;9.294;2023-06-22T01:14:52;9.02;;;7.25;;
18818;SDS011;9537;45.594;9.294;2023-06-22T01:16:00;8.93;;;7.65;;
18818;SDS011;9537;45.594;9.294;2023-06-22T01:17:05;9.10;;;7.38;;
18818;SDS011;9537;45.594;9.294;2023-06-22T01:18:10;11.75;;;7.72;;
18818;SDS011;9537;45.594;9.294;2023-06-22T01:19:20;12.02;;;7.85;;
18818;SDS011;9537;45.594;9.294;2023-06-22T01:20:35;8.73;;;7.22;;
18818;SDS011;9537;45.594;9.294;2023-06-22T01:21:37;10.15;;;7.90;;
18818;SDS011;9537;45.594;9.294;2023-06-22T01:22:43;11.63;;;8.02;;
18818;SDS011;9537;45.594;9.294;2023-06-22T01:23:58;11.25;;;8.02;;
18818;SDS011;9537;45.594;9.294;2023-06-22T01:25:13;10.52;;;7.70;;
18818;SDS011;9537;45.594;9.294;2023-06-22T01:26:21;10.15;;;7.32;;
18818;SDS011;9537;45.594;9.294;2023-06-22T01:27:36;10.05;;;7.07;;
18818;SDS011;9537;45.594;9.294;2023-06-22T01:28:49;9.85;;;7.78;;
18818;SDS011;9537;45.594;9.294;2023-06-22T01:29:55;8.68;;;7.00;;
18818;SDS011;9537;45.594;9.294;2023-06-22T01:31:00;9.32;;;7.57;;
18818;SDS011;9537;45.594;9.294;2023-06-22T01:32:05;9.77;;;7.22;;
18818;SDS011;9537;45.594;9.294;2023-06-22T01:33:07;9.07;;;7.57;;
18818;SDS011;9537;45.594;9.294;2023-06-22T01:34:12;10.93;;;7.70;;
18818;SDS011;9537;45.594;9.294;2023-06-22T01:35:14;9.13;;;7.22;;
18818;SDS011;9537;45.594;9.294;2023-06-22T01:36:18;10.70;;;7.22;;
18818;SDS011;9537;45.594;9.294;2023-06-22T01:37:20;9.60;;;7.32;;
18818;SDS011;9537;45.594;9.294;2023-06-22T01:38:22;10.50;;;6.72;;
18818;SDS011;9537;45.594;9.294;2023-06-22T01:39:23;8.88;;;7.22;;
18818;SDS011;9537;45.594;9.294;2023-06-22T01:40:25;10.02;;;8.15;;
18818;SDS011;9537;45.594;9.294;2023-06-22T01:41:27;8.75;;;6.65;;
18818;SDS011;9537;45.594;9.294;2023-06-22T01:42:30;8.40;;;7.10;;
18818;SDS011;9537;45.594;9.294;2023-06-22T01:43:32;10.85;;;7.25;;
18818;SDS011;9537;45.594;9.294;2023-06-22T01:44:36;13.10;;;7.55;;
18818;SDS011;9537;45.594;9.294;2023-06-22T01:45:38;8.57;;;6.78;;
18818;SDS011;9537;45.594;9.294;2023-06-22T01:46:40;9.27;;;7.20;;
18818;SDS011;9537;45.594;9.294;2023-06-22T01:47:41;9.05;;;7.40;;
18818;SDS011;9537;45.594;9.294;2023-06-22T01:48:43;8.40;;;7.50;;
18818;SDS011;9537;45.594;9.294;2023-06-22T01:49:44;10.52;;;7.30;;
18818;SDS011;9537;45.594;9.294;2023-06-22T01:50:47;8.93;;;7.30;;
18818;SDS011;9537;45.594;9.294;2023-06-22T01:51:48;9.98;;;7.25;;
18818;SDS011;9537;45.594;9.294;2023-06-22T01:52:50;10.73;;;7.63;;
18818;SDS011;9537;45.594;9.294;2023-06-22T01:53:50;11.75;;;7.20;;
18818;SDS011;9537;45.594;9.294;2023-06-22T01:54:52;9.27;;;7.45;;
18818;SDS011;9537;45.594;9.294;2023-06-22T01:55:53;10.45;;;7.00;;
18818;SDS011;9537;45.594;9.294;2023-06-22T01:56:55;10.07;;;6.97;;
18818;SDS011;9537;45.594;9.294;2023-06-22T01:57:56;10.27;;;7.35;;
18818;SDS011;9537;45.594;9.294;2023-06-22T01:59:02;12.32;;;7.45;;
18818;SDS011;9537;45.594;9.294;2023-06-22T02:00:12;12.80;;;7.18;;
18818;SDS011;9537;45.594;9.294;2023-06-22T02:01:20;11.43;;;7.00;;
18818;SDS011;9537;45.594;9.294;2023-06-22T02:02:25;9.05;;;7.13;;
18818;SDS011;9537;45.594;9.294;2023-06-22T02:03:32;9.32;;;7.47;;
18818;SDS011;9537;45.594;9.294;2023-06-22T02:04:37;9.85;;;7.55;;
18818;SDS011;9537;45.594;9.294;2023-06-22T02:05:47;11.82;;;7.72;;
18818;SDS011;9537;45.594;9.294;2023-06-22T02:06:53;11.68;;;7.22;;
18818;SDS011;9537;45.594;9.294;2023-06-22T02:08:00;7.90;;;7.07;;
18818;SDS011;9537;45.594;9.294;2023-06-22T02:09:08;11.05;;;7.63;;
18818;SDS011;9537;45.594;9.294;2023-06-22T02:10:13;11.60;;;7.28;;
18818;SDS011;9537;45.594;9.294;2023-06-22T02:11:16;9.23;;;6.90;;
18818;SDS011;9537;45.594;9.294;2023-06-22T02:12:21;9.35;;;7.43;;
18818;SDS011;9537;45.594;9.294;2023-06-22T02:13:23;8.80;;;6.85;;
18818;SDS011;9537;45.594;9.294;2023-06-22T02:14:26;11.38;;;7.30;;
18818;SDS011;9537;45.594;9.294;2023-06-22T02:15:29;8.57;;;7.15;;
18818;SDS011;9537;45.594;9.294;2023-06-22T02:16:31;9.35;;;8.20;;
18818;SDS011;9537;45.594;9.294;2023-06-22T02:17:32;9.95;;;7.00;;
18818;SDS011;9537;45.594;9.294;2023-06-22T02:18:34;10.82;;;6.97;;
18818;SDS011;9537;45.594;9.294;2023-06-22T02:19:36;13.48;;;8.65;;
18818;SDS011;9537;45.594;9.294;2023-06-22T02:20:39;10.75;;;6.88;;
18818;SDS011;9537;45.594;9.294;2023-06-22T02:21:40;8.60;;;7.40;;
18818;SDS011;9537;45.594;9.294;2023-06-22T02:22:42;8.65;;;6.93;;
18818;SDS011;9537;45.594;9.294;2023-06-22T02:23:42;10.05;;;7.45;;
18818;SDS011;9537;45.594;9.294;2023-06-22T02:24:44;11.45;;;7.40;;
18818;SDS011;9537;45.594;9.294;2023-06-22T02:25:45;9.45;;;7.45;;
18818;SDS011;9537;45.594;9.294;2023-06-22T02:26:47;11.82;;;7.53;;
18818;SDS011;9537;45.594;9.294;2023-06-22T02:27:48;11.73;;;7.57;;
18818;SDS011;9537;45.594;9.294;2023-06-22T02:28:49;11.43;;;8.20;;
18818;SDS011;9537;45.594;9.294;2023-06-22T02:29:50;10.85;;;7.68;;
18818;SDS011;9537;45.594;9.294;2023-06-22T02:30:53;10.73;;;7.45;;
18818;SDS011;9537;45.594;9.294;2023-06-22T02:31:54;12.55;;;8.00;;
18818;SDS011;9537;45.594;9.294;2023-06-22T02:32:56;9.57;;;7.72;;
18818;SDS011;9537;45.594;9.294;2023-06-22T02:33:59;9.75;;;6.93;;
18818;SDS011;9537;45.594;9.294;2023-06-22T02:35:01;9.95;;;7.68;;
18818;SDS011;9537;45.594;9.294;2023-06-22T02:36:04;8.88;;;7.40;;
18818;SDS011;9537;45.594;9.294;2023-06-22T02:37:09;10.82;;;7.47;;
18818;SDS011;9537;45.594;9.294;2023-06-22T02:38:13;10.07;;;7.20;;
18818;SDS011;9537;45.594;9.294;2023-06-22T02:39:14;10.48;;;8.10;;
18818;SDS011;9537;45.594;9.294;2023-06-22T02:40:15;10.32;;;7.45;;
18818;SDS011;9537;45.594;9.294;2023-06-22T02:41:17;8.75;;;7.50;;
18818;SDS011;9537;45.594;9.294;2023-06-22T02:42:18;10.40;;;7.22;;
18818;SDS011;9537;45.594;9.294;2023-06-22T02:43:21;7.95;;;7.15;;
18818;SDS011;9537;45.594;9.294;2023-06-22T02:44:22;9.13;;;7.28;;
18818;SDS011;9537;45.594;9.294;2023-06-22T02:45:24;12.15;;;8.05;;
18818;SDS011;9537;45.594;9.294;2023-06-22T02:46:26;9.60;;;7.72;;
18818;SDS011;9537;45.594;9.294;2023-06-22T02:47:28;8.98;;;7.35;;
18818;SDS011;9537;45.594;9.294;2023-06-22T02:48:28;9.13;;;7.75;;
18818;SDS011;9537;45.594;9.294;2023-06-22T02:49:30;12.02;;;7.10;;
18818;SDS011;9537;45.594;9.294;2023-06-22T02:50:31;9.68;;;7.60;;
18818;SDS011;9537;45.594;9.294;2023-06-22T02:51:33;12.45;;;7.32;;
18818;SDS011;9537;45.594;9.294;2023-06-22T02:52:34;12.65;;;7.13;;
18818;SDS011;9537;45.594;9.294;2023-06-22T02:53:36;8.77;;;6.72;;
18818;SDS011;9537;45.594;9.294;2023-06-22T02:54:38;10.35;;;7.30;;
18818;SDS011;9537;45.594;9.294;2023-06-22T02:55:38;8.80;;;7.63;;
18818;SDS011;9537;45.594;9.294;2023-06-22T02:56:41;11.85;;;8.20;;
18818;SDS011;9537;45.594;9.294;2023-06-22T02:57:43;9.82;;;7.35;;
18818;SDS011;9537;45.594;9.294;2023-06-22T02:58:46;8.23;;;7.07;;
18818;SDS011;9537;45.594;9.294;2023-06-22T02:59:47;10.73;;;7.72;;
18818;SDS011;9537;45.594;9.294;2023-06-22T03:00:49;10.90;;;7.43;;
18818;SDS011;9537;45.594;9.294;2023-06-22T03:01:54;10.50;;;7.22;;
18818;SDS011;9537;45.594;9.294;2023-06-22T03:02:56;11.07;;;7.88;;
18818;SDS011;9537;45.594;9.294;2023-06-22T03:03:57;10.25;;;7.68;;
18818;SDS011;9537;45.594;9.294;2023-06-22T03:04:59;10.88;;;8.13;;
18818;SDS011;9537;45.594;9.294;2023-06-22T03:06:01;10.60;;;7.55;;
18818;SDS011;9537;45.594;9.294;2023-06-22T03:07:03;8.48;;;7.50;;
18818;SDS011;9537;45.594;9.294;2023-06-22T03:08:04;8.73;;;7.40;;
18818;SDS011;9537;45.594;9.294;2023-06-22T03:09:06;10.75;;;7.68;;
18818;SDS011;9537;45.594;9.294;2023-06-22T03:10:07;10.80;;;7.85;;
18818;SDS011;9537;45.594;9.294;2023-06-22T03:11:10;13.02;;;8.13;;
18818;SDS011;9537;45.594;9.294;2023-06-22T03:12:11;13.52;;;7.55;;
18818;SDS011;9537;45.594;9.294;2023-06-22T03:13:13;9.43;;;7.68;;
18818;SDS011;9537;45.594;9.294;2023-06-22T03:14:13;10.65;;;7.22;;
18818;SDS011;9537;45.594;9.294;2023-06-22T03:15:15;11.02;;;7.75;;
18818;SDS011;9537;45.594;9.294;2023-06-22T03:16:17;10.80;;;7.45;;
18818;SDS011;9537;45.594;9.294;2023-06-22T03:17:19;9.90;;;7.90;;
18818;SDS011;9537;45.594;9.294;2023-06-22T03:18:21;9.40;;;7.45;;
18818;SDS011;9537;45.594;9.294;2023-06-22T03:19:22;12.00;;;8.13;;
18818;SDS011;9537;45.594;9.294;2023-06-22T03:20:24;10.98;;;7.78;;
18818;SDS011;9537;45.594;9.294;2023-06-22T03:21:27;11.98;;;8.23;;
18818;SDS011;9537;45.594;9.294;2023-06-22T03:22:29;12.38;;;7.85;;
18818;SDS011;9537;45.594;9.294;2023-06-22T03:23:30;10.10;;;7.88;;
18818;SDS011;9537;45.594;9.294;2023-06-22T03:24:32;10.23;;;7.70;;
18818;SDS011;9537;45.594;9.294;2023-06-22T03:25:35;9.68;;;8.02;;
18818;SDS011;9537;45.594;9.294;2023-06-22T03:26:37;10.18;;;7.80;;
18818;SDS011;9537;45.594;9.294;2023-06-22T03:27:37;13.25;;;8.07;;
18818;SDS011;9537;45.594;9.294;2023-06-22T03:28:39;10.40;;;7.90;;
18818;SDS011;9537;45.594;9.294;2023-06-22T03:29:40;13.95;;;8.00;;
18818;SDS011;9537;45.594;9.294;2023-06-22T03:30:42;12.55;;;7.40;;
18818;SDS011;9537;45.594;9.294;2023-06-22T03:31:42;9.90;;;7.53;;
18818;SDS011;9537;45.594;9.294;2023-06-22T03:32:46;11.13;;;8.05;;
18818;SDS011;9537;45.594;9.294;2023-06-22T03:33:47;11.13;;;8.38;;
18818;SDS011;9537;45.594;9.294;2023-06-22T03:34:49;8.65;;;7.20;;
18818;SDS011;9537;45.594;9.294;2023-06-22T03:35:50;10.32;;;7.97;;
18818;SDS011;9537;45.594;9.294;2023-06-22T03:36:52;10.88;;;7.70;;
18818;SDS011;9537;45.594;9.294;2023-06-22T03:37:54;9.18;;;7.22;;
18818;SDS011;9537;45.594;9.294;2023-06-22T03:38:55;11.38;;;8.07;;
18818;SDS011;9537;45.594;9.294;2023-06-22T03:39:57;13.18;;;8.45;;
18818;SDS011;9537;45.594;9.294;2023-06-22T03:40:58;9.27;;;7.18;;
18818;SDS011;9537;45.594;9.294;2023-06-22T03:42:00;10.55;;;7.20;;
18818;SDS011;9537;45.594;9.294;2023-06-22T03:43:00;9.77;;;7.38;;
18818;SDS011;9537;45.594;9.294;2023-06-22T03:44:02;9.05;;;7.20;;
18818;SDS011;9537;45.594;9.294;2023-06-22T03:45:03;10.50;;;7.45;;
18818;SDS011;9537;45.594;9.294;2023-06-22T03:46:06;12.70;;;7.70;;
18818;SDS011;9537;45.594;9.294;2023-06-22T03:47:08;10.68;;;7.88;;
18818;SDS011;9537;45.594;9.294;2023-06-22T03:48:11;10.50;;;7.90;;
18818;SDS011;9537;45.594;9.294;2023-06-22T03:49:12;10.70;;;8.07;;
18818;SDS011;9537;45.594;9.294;2023-06-22T03:50:13;9.63;;;7.53;;
18818;SDS011;9537;45.594;9.294;2023-06-22T03:51:15;11.60;;;7.38;;
18818;SDS011;9537;45.594;9.294;2023-06-22T03:52:15;8.30;;;6.60;;
18818;SDS011;9537;45.594;9.294;2023-06-22T03:53:17;8.85;;;7.43;;
18818;SDS011;9537;45.594;9.294;2023-06-22T03:54:18;11.20;;;8.35;;
18818;SDS011;9537;45.594;9.294;2023-06-22T03:55:20;11.27;;;7.72;;
18818;SDS011;9537;45.594;9.294;2023-06-22T03:56:21;8.98;;;8.00;;
18818;SDS011;9537;45.594;9.294;2023-06-22T03:57:22;17.45;;;8.05;;
18818;SDS011;9537;45.594;9.294;2023-06-22T03:58:24;46.65;;;9.00;;
18818;SDS011;9537;45.594;9.294;2023-06-22T03:59:24;34.47;;;9.18;;
18818;SDS011;9537;45.594;9.294;2023-06-22T04:00:26;45.35;;;10.50;;
18818;SDS011;9537;45.594;9.294;2023-06-22T04:01:27;36.80;;;10.02;;
18818;SDS011;9537;45.594;9.294;2023-06-22T04:02:29;40.53;;;9.70;;
18818;SDS011;9537;45.594;9.294;2023-06-22T04:03:31;25.98;;;8.60;;
18818;SDS011;9537;45.594;9.294;2023-06-22T04:04:33;19.23;;;8.55;;
18818;SDS011;9537;45.594;9.294;2023-06-22T04:05:35;17.20;;;7.68;;
18818;SDS011;9537;45.594;9.294;2023-06-22T04:06:36;13.70;;;7.88;;
18818;SDS011;9537;45.594;9.294;2023-06-22T04:07:37;11.10;;;7.30;;
18818;SDS011;9537;45.594;9.294;2023-06-22T04:08:39;10.77;;;7.60;;
18818;SDS011;9537;45.594;9.294;2023-06-22T04:09:41;9.80;;;7.47;;
18818;SDS011;9537;45.594;9.294;2023-06-22T04:10:42;12.68;;;7.55;;
18818;SDS011;9537;45.594;9.294;2023-06-22T04:11:43;8.95;;;7.05;;
18818;SDS011;9537;45.594;9.294;2023-06-22T04:12:45;11.60;;;8.05;;
18818;SDS011;9537;45.594;9.294;2023-06-22T04:13:46;11.00;;;7.68;;
18818;SDS011;9537;45.594;9.294;2023-06-22T04:14:48;10.13;;;7.50;;
18818;SDS011;9537;45.594;9.294;2023-06-22T04:15:49;13.68;;;8.00;;
18818;SDS011;9537;45.594;9.294;2023-06-22T04:16:51;9.63;;;6.90;;
18818;SDS011;9537;45.594;9.294;2023-06-22T04:17:52;12.77;;;7.47;;
18818;SDS011;9537;45.594;9.294;2023-06-22T04:18:55;11.00;;;7.55;;
18818;SDS011;9537;45.594;9.294;2023-06-22T04:19:56;12.80;;;8.57;;
18818;SDS011;9537;45.594;9.294;2023-06-22T04:20:58;13.02;;;8.80;;
18818;SDS011;9537;45.594;9.294;2023-06-22T04:21:59;11.02;;;7.90;;
18818;SDS011;9537;45.594;9.294;2023-06-22T04:23:00;11.18;;;8.38;;
18818;SDS011;9537;45.594;9.294;2023-06-22T04:24:01;12.30;;;8.20;;
18818;SDS011;9537;45.594;9.294;2023-06-22T04:25:03;11.75;;;8.30;;
18818;SDS011;9537;45.594;9.294;2023-06-22T04:26:07;9.82;;;7.97;;
18818;SDS011;9537;45.594;9.294;2023-06-22T04:27:09;10.05;;;7.30;;
18818;SDS011;9537;45.594;9.294;2023-06-22T04:28:10;10.35;;;7.38;;
18818;SDS011;9537;45.594;9.294;2023-06-22T04:29:12;13.18;;;7.93;;
18818;SDS011;9537;45.594;9.294;2023-06-22T04:30:13;11.25;;;8.00;;
18818;SDS011;9537;45.594;9.294;2023-06-22T04:31:17;9.75;;;7.82;;
18818;SDS011;9537;45.594;9.294;2023-06-22T04:32:18;11.43;;;7.85;;
18818;SDS011;9537;45.594;9.294;2023-06-22T04:33:20;12.77;;;8.13;;
18818;SDS011;9537;45.594;9.294;2023-06-22T04:34:22;22.73;;;8.38;;
18818;SDS011;9537;45.594;9.294;2023-06-22T04:35:26;14.07;;;7.55;;
18818;SDS011;9537;45.594;9.294;2023-06-22T04:36:28;11.13;;;7.60;;
18818;SDS011;9537;45.594;9.294;2023-06-22T04:37:31;11.27;;;8.18;;
18818;SDS011;9537;45.594;9.294;2023-06-22T04:38:32;10.60;;;7.85;;
18818;SDS011;9537;45.594;9.294;2023-06-22T04:39:33;8.68;;;7.10;;
18818;SDS011;9537;45.594;9.294;2023-06-22T04:40:36;13.18;;;8.15;;
18818;SDS011;9537;45.594;9.294;2023-06-22T04:41:36;12.18;;;7.90;;
18818;SDS011;9537;45.594;9.294;2023-06-22T04:42:43;10.30;;;7.63;;
18818;SDS011;9537;45.594;9.294;2023-06-22T04:43:53;11.68;;;7.97;;
18818;SDS011;9537;45.594;9.294;2023-06-22T04:45:00;10.93;;;8.50;;
18818;SDS011;9537;45.594;9.294;2023-06-22T04:46:00;12.43;;;7.97;;
18818;SDS011;9537;45.594;9.294;2023-06-22T04:47:03;11.75;;;7.97;;
18818;SDS011;9537;45.594;9.294;2023-06-22T04:48:06;9.63;;;8.05;;
18818;SDS011;9537;45.594;9.294;2023-06-22T04:49:09;9.50;;;7.97;;
18818;SDS011;9537;45.594;9.294;2023-06-22T04:50:13;10.25;;;7.45;;
18818;SDS011;9537;45.594;9.294;2023-06-22T04:51:14;9.48;;;7.63;;
18818;SDS011;9537;45.594;9.294;2023-06-22T04:52:16;11.27;;;7.45;;
18818;SDS011;9537;45.594;9.294;2023-06-22T04:53:17;10.73;;;8.07;;
18818;SDS011;9537;45.594;9.294;2023-06-22T04:54:19;9.82;;;7.68;;
18818;SDS011;9537;45.594;9.294;2023-06-22T04:55:20;10.20;;;7.55;;
18818;SDS011;9537;45.594;9.294;2023-06-22T04:56:22;10.07;;;7.80;;
18818;SDS011;9537;45.594;9.294;2023-06-22T04:57:28;10.90;;;7.70;;
18818;SDS011;9537;45.594;9.294;2023-06-22T04:58:32;14.15;;;8.35;;
18818;SDS011;9537;45.594;9.294;2023-06-22T04:59:33;8.95;;;7.10;;
18818;SDS011;9537;45.594;9.294;2023-06-22T05:00:35;10.48;;;7.78;;
18818;SDS011;9537;45.594;9.294;2023-06-22T05:01:37;9.75;;;7.95;;
18818;SDS011;9537;45.594;9.294;2023-06-22T05:02:38;15.35;;;7.90;;
18818;SDS011;9537;45.594;9.294;2023-06-22T05:03:40;8.30;;;7.40;;
18818;SDS011;9537;45.594;9.294;2023-06-22T05:04:42;12.63;;;7.93;;
18818;SDS011;9537;45.594;9.294;2023-06-22T05:05:46;11.77;;;8.05;;
18818;SDS011;9537;45.594;9.294;2023-06-22T05:06:47;11.30;;;8.18;;
18818;SDS011;9537;45.594;9.294;2023-06-22T05:07:50;10.52;;;7.80;;
18818;SDS011;9537;45.594;9.294;2023-06-22T05:08:55;10.35;;;7.68;;
18818;SDS011;9537;45.594;9.294;2023-06-22T05:09:57;11.68;;;7.80;;
18818;SDS011;9537;45.594;9.294;2023-06-22T05:10:59;11.35;;;7.85;;
18818;SDS011;9537;45.594;9.294;2023-06-22T05:12:01;11.40;;;7.63;;
18818;SDS011;9537;45.594;9.294;2023-06-22T05:13:03;8.57;;;7.13;;
18818;SDS011;9537;45.594;9.294;2023-06-22T05:14:04;8.93;;;7.03;;
18818;SDS011;9537;45.594;9.294;2023-06-22T05:15:05;12.73;;;7.55;;
18818;SDS011;9537;45.594;9.294;2023-06-22T05:16:09;11.95;;;7.55;;
18818;SDS011;9537;45.594;9.294;2023-06-22T05:17:09;9.13;;;7.97;;
18818;SDS011;9537;45.594;9.294;2023-06-22T05:18:13;9.27;;;7.88;;
18818;SDS011;9537;45.594;9.294;2023-06-22T05:19:14;10.95;;;7.35;;
18818;SDS011;9537;45.594;9.294;2023-06-22T05:20:16;9.93;;;8.02;;
18818;SDS011;9537;45.594;9.294;2023-06-22T05:21:21;12.15;;;7.57;;
18818;SDS011;9537;45.594;9.294;2023-06-22T05:22:24;9.50;;;7.13;;
18818;SDS011;9537;45.594;9.294;2023-06-22T05:23:25;10.88;;;7.20;;
18818;SDS011;9537;45.594;9.294;2023-06-22T05:24:26;12.07;;;8.00;;
18818;SDS011;9537;45.594;9.294;2023-06-22T05:25:27;9.57;;;7.50;;
18818;SDS011;9537;45.594;9.294;2023-06-22T05:26:30;10.07;;;7.97;;
18818;SDS011;9537;45.594;9.294;2023-06-22T05:27:32;10.75;;;8.32;;
18818;SDS011;9537;45.594;9.294;2023-06-22T05:28:33;14.90;;;8.63;;
18818;SDS011;9537;45.594;9.294;2023-06-22T05:29:35;13.32;;;7.82;;
18818;SDS011;9537;45.594;9.294;2023-06-22T05:30:36;11.70;;;7.97;;
18818;SDS011;9537;45.594;9.294;2023-06-22T05:31:38;11.50;;;7.55;;
18818;SDS011;9537;45.594;9.294;2023-06-22T05:32:40;9.93;;;8.15;;
18818;SDS011;9537;45.594;9.294;2023-06-22T05:33:42;10.70;;;7.53;;
18818;SDS011;9537;45.594;9.294;2023-06-22T05:34:44;10.35;;;7.53;;
18818;SDS011;9537;45.594;9.294;2023-06-22T05:35:45;11.30;;;7.45;;
18818;SDS011;9537;45.594;9.294;2023-06-22T05:36:48;9.77;;;7.82;;
18818;SDS011;9537;45.594;9.294;2023-06-22T05:37:50;11.55;;;7.70;;
18818;SDS011;9537;45.594;9.294;2023-06-22T05:38:51;11.52;;;7.80;;
18818;SDS011;9537;45.594;9.294;2023-06-22T05:39:53;10.98;;;7.50;;
18818;SDS011;9537;45.594;9.294;2023-06-22T05:40:55;13.05;;;7.93;;
18818;SDS011;9537;45.594;9.294;2023-06-22T05:41:57;9.57;;;8.25;;
18818;SDS011;9537;45.594;9.294;2023-06-22T05:42:57;10.88;;;7.88;;
18818;SDS011;9537;45.594;9.294;2023-06-22T05:44:00;13.63;;;8.40;;
18818;SDS011;9537;45.594;9.294;2023-06-22T05:45:01;10.73;;;7.45;;
18818;SDS011;9537;45.594;9.294;2023-06-22T05:46:04;10.15;;;7.75;;
18818;SDS011;9537;45.594;9.294;2023-06-22T05:47:05;10.63;;;7.97;;
18818;SDS011;9537;45.594;9.294;2023-06-22T05:48:07;9.57;;;7.03;;
18818;SDS011;9537;45.594;9.294;2023-06-22T05:49:07;9.27;;;7.63;;
18818;SDS011;9537;45.594;9.294;2023-06-22T05:50:09;9.88;;;7.35;;
18818;SDS011;9537;45.594;9.294;2023-06-22T05:51:10;9.20;;;7.95;;
18818;SDS011;9537;45.594;9.294;2023-06-22T05:52:13;10.73;;;8.02;;
18818;SDS011;9537;45.594;9.294;2023-06-22T05:53:14;8.48;;;7.45;;
18818;SDS011;9537;45.594;9.294;2023-06-22T05:54:16;8.48;;;7.10;;
18818;SDS011;9537;45.594;9.294;2023-06-22T05:55:18;10.70;;;7.43;;
18818;SDS011;9537;45.594;9.294;2023-06-22T05:56:19;14.18;;;7.95;;
18818;SDS011;9537;45.594;9.294;2023-06-22T05:57:21;9.13;;;7.13;;
18818;SDS011;9537;45.594;9.294;2023-06-22T05:58:22;10.23;;;7.55;;
18818;SDS011;9537;45.594;9.294;2023-06-22T05:59:24;11.05;;;8.05;;
18818;SDS011;9537;45.594;9.294;2023-06-22T06:00:25;7.95;;;6.75;;
18818;SDS011;9537;45.594;9.294;2023-06-22T06:01:27;11.02;;;7.40;;
18818;SDS011;9537;45.594;9.294;2023-06-22T06:02:28;12.15;;;7.55;;
18818;SDS011;9537;45.594;9.294;2023-06-22T06:03:29;8.52;;;6.82;;
18818;SDS011;9537;45.594;9.294;2023-06-22T06:04:31;9.55;;;6.97;;
18818;SDS011;9537;45.594;9.294;2023-06-22T06:05:32;11.65;;;7.78;;
18818;SDS011;9537;45.594;9.294;2023-06-22T06:06:34;14.68;;;7.82;;
18818;SDS011;9537;45.594;9.294;2023-06-22T06:07:38;9.10;;;7.32;;
18818;SDS011;9537;45.594;9.294;2023-06-22T06:08:40;9.73;;;7.00;;
18818;SDS011;9537;45.594;9.294;2023-06-22T06:09:41;8.70;;;6.68;;
18818;SDS011;9537;45.594;9.294;2023-06-22T06:10:43;10.10;;;7.68;;
18818;SDS011;9537;45.594;9.294;2023-06-22T06:11:43;10.85;;;6.68;;
18818;SDS011;9537;45.594;9.294;2023-06-22T06:12:45;9.40;;;7.05;;
18818;SDS011;9537;45.594;9.294;2023-06-22T06:13:46;8.02;;;7.13;;
18818;SDS011;9537;45.594;9.294;2023-06-22T06:14:47;10.30;;;8.40;;
18818;SDS011;9537;45.594;9.294;2023-06-22T06:15:48;12.75;;;7.90;;
18818;SDS011;9537;45.594;9.294;2023-06-22T06:16:51;13.45;;;8.40;;
18818;SDS011;9537;45.594;9.294;2023-06-22T06:17:52;11.65;;;7.68;;
18818;SDS011;9537;45.594;9.294;2023-06-22T06:18:54;14.90;;;8.05;;